Time;durP1;ratioP1;P1;durP2;ratioP2;P2;SDS_P1;SDS_P2;PMS_P1;PMS_P2;Temp;Humidity;BMP_temperature;BMP_pressure;BME280_temperature;BME280_humidity;BME280_pressure;Samples;Min_cycle;Max_cycle;Signal;HPM_P1;HPM_P2
2024/04/10 00:00:17;;;;;;;13.50;2.90;;;10.50;43.90;;;;;;5343944;26;20357;-76
2024/04/10 00:02:42;;;;;;;19.50;3.87;;;10.60;42.50;;;;;;5343418;26;20381;-77
2024/04/10 00:05:09;;;;;;;19.73;3.33;;;10.20;44.50;;;;;;5345037;26;20827;-76
2024/04/10 00:07:35;;;;;;;23.52;3.97;;;10.70;42.20;;;;;;5343500;26;20412;-76
2024/04/10 00:10:01;;;;;;;20.33;4.30;;;10.70;42.20;;;;;;5343454;26;20431;-76
2024/04/10 00:12:26;;;;;;;19.90;3.50;;;10.70;41.50;;;;;;5341825;26;20369;-77
2024/04/10 00:14:52;;;;;;;25.20;4.63;;;10.50;43.30;;;;;;5344639;26;20325;-77
2024/04/10 00:17:17;;;;;;;22.88;4.10;;;10.40;41.60;;;;;;5346360;26;20859;-76
2024/04/10 00:19:50;;;;;;;23.80;4.90;;;10.70;41.00;;;;;;5347030;26;20372;-76
2024/04/10 00:22:16;;;;;;;24.73;4.57;;;10.80;41.60;;;;;;5347072;26;20388;-76
2024/04/10 00:24:41;;;;;;;21.63;3.70;;;10.30;42.90;;;;;;5345449;26;20418;-77
2024/04/10 00:27:07;;;;;;;22.75;3.90;;;10.50;41.60;;;;;;5344307;26;20373;-76
2024/04/10 00:29:33;;;;;;;23.90;4.17;;;10.30;42.00;;;;;;5343947;26;20357;-76
2024/04/10 00:31:59;;;;;;;18.53;3.60;;;10.30;41.70;;;;;;5342233;26;20361;-75
2024/04/10 00:34:24;;;;;;;21.50;3.55;;;10.20;42.10;;;;;;5342315;26;20411;-76
2024/04/10 00:36:51;;;;;;;21.08;3.90;;;10.20;42.60;;;;;;5344165;26;20338;-76
2024/04/10 00:39:17;;;;;;;18.05;3.70;;;10.10;43.20;;;;;;5344789;26;20698;-76
2024/04/10 00:41:42;;;;;;;18.13;4.05;;;10.00;43.10;;;;;;5343768;26;20348;-76
2024/04/10 00:44:08;;;;;;;22.15;3.83;;;9.90;44.50;;;;;;5343641;26;20883;-75
2024/04/10 00:46:35;;;;;;;20.70;4.10;;;9.90;44.50;;;;;;5344687;26;20317;-75
2024/04/10 00:49:01;;;;;;;21.80;3.58;;;9.80;44.80;;;;;;5344023;26;20397;-75
2024/04/10 00:51:27;;;;;;;20.25;3.72;;;;;;;;;;5343706;26;20349;-76
2024/04/10 00:53:54;;;;;;;19.13;4.50;;;9.60;45.30;;;;;;5343204;26;20904;-75
2024/04/10 00:56:20;;;;;;;22.25;4.00;;;9.60;46.30;;;;;;5344939;26;20340;-76
2024/04/10 00:58:47;;;;;;;16.23;3.80;;;9.60;45.40;;;;;;5343686;26;20365;-76
2024/04/10 01:01:13;;;;;;;15.73;2.83;;;9.50;46.90;;;;;;5342205;26;20372;-76
2024/04/10 01:03:40;;;;;;;15.45;3.42;;;9.40;48.60;;;;;;5342686;26;20839;-76
2024/04/10 01:06:08;;;;;;;21.13;3.88;;;9.50;47.30;;;;;;5342887;26;20374;-75
2024/04/10 01:08:36;;;;;;;25.25;4.22;;;9.60;47.30;;;;;;5342924;26;20775;-76
2024/04/10 01:11:04;;;;;;;21.02;4.70;;;9.50;46.10;;;;;;5342658;26;20383;-77
2024/04/10 01:13:30;;;;;;;32.15;4.50;;;10.30;47.50;;;;;;5342505;26;20336;-75
2024/04/10 01:15:56;;;;;;;18.95;4.07;;;9.40;47.60;;;;;;5342440;26;20867;-76
2024/04/10 01:18:22;;;;;;;22.13;4.03;;;9.20;46.90;;;;;;5343460;26;20333;-76
2024/04/10 01:20:50;;;;;;;23.50;4.60;;;9.50;46.80;;;;;;5343677;26;20403;-77
2024/04/10 01:23:19;;;;;;;23.33;3.90;;;9.50;47.10;;;;;;5342988;26;20827;-77
2024/04/10 01:25:45;;;;;;;22.87;3.90;;;9.50;47.10;;;;;;5343971;26;20329;-76
2024/04/10 01:28:11;;;;;;;18.33;4.10;;;9.40;46.60;;;;;;5343052;26;20713;-76
2024/04/10 01:30:37;;;;;;;21.42;3.92;;;9.40;48.00;;;;;;5343164;26;20356;-76
2024/04/10 01:33:29;;;;;;;18.52;4.53;;;9.30;47.60;;;;;;5342755;26;20432;-76
2024/04/10 01:35:55;;;;;;;21.40;4.03;;;9.30;48.20;;;;;;5342410;26;20340;-76
2024/04/10 01:38:23;;;;;;;17.48;4.18;;;9.30;49.30;;;;;;5343305;26;20428;-75
2024/04/10 01:40:49;;;;;;;20.47;3.70;;;9.30;47.70;;;;;;5342003;26;20509;-76
2024/04/10 01:43:14;;;;;;;34.27;4.03;;;9.10;49.20;;;;;;5341942;26;20835;-77
2024/04/10 01:45:40;;;;;;;20.40;3.90;;;9.30;48.40;;;;;;5342601;26;20363;-76
2024/04/10 01:48:06;;;;;;;21.03;4.10;;;9.20;48.90;;;;;;5344957;26;20341;-76
2024/04/10 01:50:32;;;;;;;22.77;3.92;;;9.10;50.60;;;;;;5350111;26;20333;-77
2024/04/10 01:52:57;;;;;;;25.42;4.07;;;9.10;49.10;;;;;;5352779;26;20420;-76
2024/04/10 01:55:23;;;;;;;19.20;3.70;;;9.10;50.00;;;;;;5352426;26;20337;-76
2024/04/10 01:57:48;;;;;;;23.47;4.43;;;9.10;50.20;;;;;;5350552;26;20329;-75
2024/04/10 02:00:18;;;;;;;22.83;4.70;;;9.10;51.60;;;;;;5345640;26;20848;-74
2024/04/10 02:02:47;;;;;;;18.75;3.97;;;9.10;49.50;;;;;;5345291;26;20372;-76
2024/04/10 02:05:13;;;;;;;17.52;4.07;;;9.10;50.30;;;;;;5345864;26;20428;-75
2024/04/10 02:07:38;;;;;;;17.27;3.30;;;9.00;50.70;;;;;;5345704;26;20329;-77
2024/04/10 02:10:04;;;;;;;26.30;5.10;;;9.10;53.60;;;;;;5346143;26;20473;-76
2024/04/10 02:12:29;;;;;;;20.03;4.03;;;9.00;50.60;;;;;;5345276;26;20371;-77
2024/04/10 02:14:55;;;;;;;20.77;4.50;;;9.00;51.00;;;;;;5351982;26;20372;-76
2024/04/10 02:17:21;;;;;;;27.50;4.13;;;8.90;52.00;;;;;;5349150;26;20337;-77
2024/04/10 02:19:49;;;;;;;25.23;4.17;;;8.90;51.70;;;;;;5343924;26;20333;-76
2024/04/10 02:22:14;;;;;;;22.13;3.80;;;8.80;51.50;;;;;;5345447;26;20398;-76
2024/04/10 02:24:40;;;;;;;15.40;3.70;;;8.90;52.20;;;;;;5344706;26;20674;-76
2024/04/10 02:27:05;;;;;;;23.30;3.97;;;8.90;51.60;;;;;;5345435;26;20348;-76
2024/04/10 02:29:31;;;;;;;25.38;4.00;;;8.90;54.60;;;;;;5345334;26;20341;-76
2024/04/10 02:31:57;;;;;;;25.30;4.20;;;8.80;52.40;;;;;;5346119;26;20421;-75
2024/04/10 02:34:22;;;;;;;19.60;4.30;;;8.80;53.10;;;;;;5346094;26;20329;-75
2024/04/10 02:36:49;;;;;;;16.25;3.53;;;8.90;55.10;;;;;;5346080;26;20325;-75
2024/04/10 02:39:14;;;;;;;23.93;4.20;;;8.80;53.90;;;;;;5346110;26;20505;-75
2024/04/10 02:41:40;;;;;;;27.37;4.80;;;8.70;53.60;;;;;;5344598;26;20436;-76
2024/04/10 02:44:05;;;;;;;17.13;3.27;;;8.70;54.00;;;;;;5344419;26;20337;-76
2024/04/10 02:46:31;;;;;;;21.97;4.43;;;8.60;59.20;;;;;;5345165;26;20329;-76
2024/04/10 02:48:57;;;;;;;28.65;4.70;;;8.70;54.20;;;;;;5344921;26;20329;-75
2024/04/10 02:51:23;;;;;;;17.25;4.15;;;8.60;54.60;;;;;;5344740;26;20697;-77
2024/04/10 02:53:48;;;;;;;18.88;3.97;;;8.60;55.60;;;;;;5344407;26;20333;-75
2024/04/10 02:56:14;;;;;;;22.58;3.90;;;8.70;54.80;;;;;;5344928;26;20325;-76
2024/04/10 02:58:40;;;;;;;19.80;3.60;;;8.70;54.50;;;;;;5344559;26;20427;-76
2024/04/10 03:01:05;;;;;;;20.17;4.10;;;8.70;54.10;;;;;;5344292;26;20938;-77
2024/04/10 03:03:31;;;;;;;27.10;4.60;;;8.60;54.70;;;;;;5344523;26;20344;-75
2024/04/10 03:06:05;;;;;;;18.85;4.10;;;8.60;55.00;;;;;;5344725;26;20880;-75
2024/04/10 03:08:31;;;;;;;19.73;4.20;;;8.60;55.40;;;;;;5344543;26;20325;-78
2024/04/10 03:10:57;;;;;;;23.25;4.65;;;8.60;55.70;;;;;;5344898;26;20411;-76
2024/04/10 03:13:23;;;;;;;22.60;4.38;;;8.60;57.70;;;;;;5344597;26;20325;-77
2024/04/10 03:15:49;;;;;;;24.20;4.47;;;8.70;55.00;;;;;;5344947;26;20919;-75
2024/04/10 03:18:16;;;;;;;25.60;4.50;;;8.70;54.80;;;;;;5344854;26;20329;-75
2024/04/10 03:20:42;;;;;;;18.77;4.35;;;8.90;57.40;;;;;;5344273;26;20328;-75
2024/04/10 03:23:07;;;;;;;22.17;4.55;;;8.70;54.80;;;;;;5344021;26;20444;-75
2024/04/10 03:25:33;;;;;;;21.38;4.97;;;8.80;53.80;;;;;;5344360;26;20649;-75
2024/04/10 03:27:59;;;;;;;23.55;4.10;;;8.70;54.30;;;;;;5342316;26;20325;-75
2024/04/10 03:30:28;;;;;;;19.30;3.90;;;8.70;54.60;;;;;;5345310;26;20325;-76
2024/04/10 03:32:54;;;;;;;19.30;4.10;;;8.70;53.50;;;;;;5343789;26;20369;-76
2024/04/10 03:35:20;;;;;;;19.63;4.30;;;8.70;55.50;;;;;;5344568;26;20329;-77
2024/04/10 03:37:46;;;;;;;24.27;5.00;;;8.60;54.60;;;;;;5344256;26;20641;-76
2024/04/10 03:40:12;;;;;;;16.92;3.55;;;;;;;;;;5344426;26;20333;-75
2024/04/10 03:42:38;;;;;;;16.50;3.80;;;8.60;54.90;;;;;;5343932;26;20539;-74
2024/04/10 03:45:05;;;;;;;18.08;3.53;;;8.50;56.80;;;;;;5344065;26;20978;-76
2024/04/10 03:47:30;;;;;;;17.17;3.65;;;8.50;58.80;;;;;;5344034;26;20367;-76
2024/04/10 03:49:57;;;;;;;21.77;4.78;;;8.60;56.20;;;;;;5344065;26;20407;-76
2024/04/10 03:52:22;;;;;;;19.50;3.80;;;8.60;55.50;;;;;;5342350;26;20332;-75
2024/04/10 03:54:48;;;;;;;23.27;4.70;;;8.50;56.60;;;;;;5343796;26;20376;-76
2024/04/10 03:57:13;;;;;;;15.13;3.80;;;8.10;58.30;;;;;;5344053;26;20336;-76
2024/04/10 03:59:39;;;;;;;19.13;4.03;;;8.40;57.30;;;;;;5343984;26;20333;-76
2024/04/10 04:02:04;;;;;;;15.02;3.72;;;8.40;57.00;;;;;;5344085;26;20349;-77
2024/04/10 04:04:30;;;;;;;19.70;4.30;;;8.50;58.60;;;;;;5343594;26;20373;-76
2024/04/10 04:06:56;;;;;;;16.92;3.90;;;8.50;57.00;;;;;;5343355;26;20329;-75
2024/04/10 04:09:22;;;;;;;21.17;4.20;;;;;;;;;;5343852;26;20341;-76
2024/04/10 04:11:48;;;;;;;18.48;4.13;;;8.70;54.80;;;;;;5342619;26;20336;-77
2024/04/10 04:14:14;;;;;;;13.40;3.45;;;8.40;56.70;;;;;;5344340;26;20430;-76
2024/04/10 04:16:39;;;;;;;21.73;3.95;;;8.70;56.00;;;;;;5343580;26;20329;-74
2024/04/10 04:19:05;;;;;;;19.67;3.70;;;8.70;55.70;;;;;;5348618;26;20394;-76
2024/04/10 04:21:31;;;;;;;27.33;5.10;;;8.50;55.60;;;;;;5349807;26;20344;-75
2024/04/10 04:24:00;;;;;;;18.25;3.67;;;8.70;56.30;;;;;;5353149;26;20800;-76
2024/04/10 04:26:26;;;;;;;25.10;4.32;;;8.80;55.00;;;;;;5352849;26;20321;-76
2024/04/10 04:28:52;;;;;;;25.08;4.50;;;8.70;55.30;;;;;;5348177;26;20321;-76
2024/04/10 04:32:35;;;;;;;18.77;3.85;;;9.00;53.00;;;;;;5509549;25;20333;-77
2024/04/10 04:35:01;;;;;;;29.25;4.00;;;8.90;58.80;;;;;;5535336;25;20366;-76
2024/04/10 04:37:26;;;;;;;22.73;4.53;;;9.00;55.90;;;;;;5506126;25;20330;-76
2024/04/10 04:39:53;;;;;;;28.08;4.85;;;8.90;53.70;;;;;;5506008;25;20354;-77
2024/04/10 04:42:19;;;;;;;23.73;4.10;;;8.90;53.20;;;;;;5506271;25;20672;-76
2024/04/10 04:44:44;;;;;;;17.63;3.87;;;8.90;53.60;;;;;;5499497;20;20426;-73
2024/04/10 04:47:10;;;;;;;17.10;3.63;;;8.90;55.00;;;;;;5471794;26;20784;-73
2024/04/10 04:49:36;;;;;;;24.03;4.30;;;8.80;54.60;;;;;;5467647;26;21030;-74
2024/04/10 04:52:01;;;;;;;22.88;4.50;;;8.90;55.50;;;;;;5467551;26;20336;-73
2024/04/10 04:54:27;;;;;;;20.13;3.60;;;8.40;56.90;;;;;;5467480;26;20356;-73
2024/04/10 04:56:52;;;;;;;21.17;4.13;;;8.80;54.20;;;;;;5467054;26;20660;-73
2024/04/10 04:59:18;;;;;;;16.65;3.05;;;8.90;56.70;;;;;;5467985;26;20807;-74
2024/04/10 05:01:43;;;;;;;23.20;3.78;;;8.80;54.00;;;;;;5467266;26;20320;-73
2024/04/10 05:06:53;;;;;;;13.45;3.90;;;8.80;54.80;;;;;;5467717;26;20422;-73
2024/04/10 05:09:18;;;;;;;21.80;4.10;;;8.90;54.90;;;;;;5467592;26;20822;-74
2024/04/10 05:11:44;;;;;;;23.20;4.85;;;8.90;54.20;;;;;;5468199;26;20409;-74
2024/04/10 05:14:09;;;;;;;15.88;3.30;;;8.60;53.90;;;;;;5468131;26;20332;-73
2024/04/10 05:16:35;;;;;;;15.23;3.78;;;9.50;56.60;;;;;;5467282;26;20316;-73
2024/04/10 05:19:04;;;;;;;19.63;4.07;;;9.00;53.50;;;;;;5467719;26;20359;-73
2024/04/10 05:21:30;;;;;;;27.67;4.55;;;9.10;53.50;;;;;;5467650;26;20916;-75
2024/04/10 05:23:56;;;;;;;20.35;4.38;;;8.90;54.70;;;;;;5467984;26;20324;-72
2024/04/10 05:26:22;;;;;;;22.75;3.70;;;9.10;53.70;;;;;;5468421;26;20391;-73
2024/04/10 05:28:48;;;;;;;20.60;3.70;;;9.20;52.70;;;;;;5466800;26;20336;-73
2024/04/10 05:31:13;;;;;;;24.40;5.63;;;9.20;53.10;;;;;;5466948;26;20679;-72
2024/04/10 05:33:39;;;;;;;20.50;6.10;;;9.40;50.60;;;;;;5464256;26;20940;-74
2024/04/10 05:36:05;;;;;;;24.50;6.50;;;9.40;51.40;;;;;;5465409;26;20333;-75
2024/04/10 05:38:31;;;;;;;26.33;4.47;;;9.40;51.90;;;;;;5466970;26;20663;-75
2024/04/10 05:40:58;;;;;;;22.90;4.40;;;9.30;52.10;;;;;;5467692;26;20776;-73
2024/04/10 05:43:24;;;;;;;18.60;4.18;;;9.30;52.30;;;;;;5453759;26;20392;-72
2024/04/10 05:45:56;;;;;;;20.20;7.38;;;9.80;53.70;;;;;;5451165;26;20345;-74
2024/04/10 05:48:23;;;;;;;20.73;6.22;;;;;;;;;;5453692;26;20825;-72
2024/04/10 05:50:54;;;;;;;23.98;6.28;;;9.20;51.50;;;;;;5450584;26;20365;-74
2024/04/10 05:53:20;;;;;;;21.00;4.93;;;9.20;52.70;;;;;;5451083;26;20321;-73
2024/04/10 05:55:46;;;;;;;19.08;4.10;;;9.10;52.80;;;;;;5448790;26;20887;-73
2024/04/10 05:58:11;;;;;;;25.07;5.70;;;9.20;53.40;;;;;;5451208;26;20329;-74
2024/04/10 06:00:37;;;;;;;22.65;6.38;;;9.10;53.50;;;;;;5451608;26;20337;-74
2024/04/10 06:03:02;;;;;;;19.77;4.88;;;9.10;54.30;;;;;;5450842;26;20705;-75
2024/04/10 06:05:28;;;;;;;22.50;5.30;;;9.30;59.90;;;;;;5450798;26;20393;-74
2024/04/10 06:07:53;;;;;;;22.20;6.75;;;9.30;53.00;;;;;;5436958;26;20343;-73
2024/04/10 06:10:19;;;;;;;19.42;5.55;;;9.40;52.30;;;;;;5437689;26;20372;-75
2024/04/10 06:12:52;;;;;;;22.92;5.28;;;9.30;54.20;;;;;;5444161;26;20673;-74
2024/04/10 06:15:18;;;;;;;21.30;4.80;;;9.30;52.50;;;;;;5438189;26;20367;-74
2024/04/10 06:17:43;;;;;;;14.55;4.22;;;9.70;50.70;;;;;;5450839;26;20333;-75
2024/04/10 06:20:11;;;;;;;21.77;6.30;;;9.70;50.60;;;;;;5451330;26;20371;-73
2024/04/10 06:22:39;;;;;;;28.38;5.90;;;9.90;49.90;;;;;;5447050;26;20329;-71
2024/04/10 06:25:05;;;;;;;21.98;6.63;;;;;;;;;;5444002;26;20666;-71
2024/04/10 06:27:31;;;;;;;29.58;6.30;;;10.30;47.20;;;;;;5416652;26;20379;-72
2024/04/10 06:29:57;;;;;;;18.00;4.60;;;10.50;47.00;;;;;;5433052;26;20785;-72
2024/04/10 06:32:22;;;;;;;24.60;5.83;;;10.90;44.20;;;;;;5423394;26;20825;-73
2024/04/10 06:34:48;;;;;;;24.33;6.27;;;11.20;41.80;;;;;;5448790;26;20367;-73
2024/04/10 06:37:15;;;;;;;24.47;6.20;;;11.00;42.80;;;;;;5446294;26;20329;-74
2024/04/10 06:39:41;;;;;;;15.60;4.60;;;11.40;41.70;;;;;;5414347;26;20348;-73
2024/04/10 06:42:06;;;;;;;19.20;4.40;;;11.60;40.40;;;;;;5438550;26;20332;-74
2024/04/10 06:44:32;;;;;;;14.07;4.10;;;11.70;38.70;;;;;;5416222;26;20340;-74
2024/04/10 06:46:58;;;;;;;21.27;5.00;;;11.60;38.50;;;;;;5416255;26;20812;-72
2024/04/10 06:49:27;;;;;;;22.85;6.32;;;11.60;39.30;;;;;;5414685;26;20427;-74
2024/04/10 06:51:52;;;;;;;24.20;6.22;;;11.60;40.00;;;;;;5430187;26;20344;-72
2024/04/10 06:54:20;;;;;;;22.38;6.00;;;11.50;40.90;;;;;;5415091;26;20343;-73
2024/04/10 06:56:47;;;;;;;16.63;4.93;;;11.70;39.80;;;;;;5423255;26;20754;-73
2024/04/10 06:59:13;;;;;;;18.85;5.80;;;11.80;39.40;;;;;;5448167;26;20332;-72
2024/04/10 07:01:39;;;;;;;24.75;5.38;;;12.30;40.40;;;;;;5450138;26;20343;-72
2024/04/10 07:04:04;;;;;;;19.20;6.20;;;11.90;40.40;;;;;;5449656;26;20349;-71
2024/04/10 07:06:30;;;;;;;22.03;5.37;;;12.00;38.20;;;;;;5430672;26;20340;-72
2024/04/10 07:08:56;;;;;;;20.60;5.78;;;12.00;37.70;;;;;;5414826;26;20451;-72
2024/04/10 07:11:22;;;;;;;18.17;5.00;;;12.40;40.10;;;;;;5439955;26;20339;-72
2024/04/10 07:13:49;;;;;;;19.67;4.45;;;12.40;35.80;;;;;;5424565;26;20387;-70
2024/04/10 07:16:16;;;;;;;23.53;5.30;;;12.40;36.40;;;;;;5450370;26;20444;-72
2024/04/10 07:18:43;;;;;;;17.15;5.00;;;12.60;35.50;;;;;;5451201;26;20357;-72
2024/04/10 07:21:12;;;;;;;22.83;6.38;;;12.80;34.90;;;;;;5445449;26;20640;-70
2024/04/10 07:23:40;;;;;;;17.75;5.63;;;13.00;33.50;;;;;;5413660;26;20335;-71
2024/04/10 07:26:12;;;;;;;17.73;4.85;;;13.10;33.60;;;;;;5429818;26;20357;-71
2024/04/10 07:28:42;;;;;;;17.67;5.50;;;13.00;32.90;;;;;;5450927;26;20321;-71
2024/04/10 07:31:09;;;;;;;19.40;5.67;;;13.00;34.30;;;;;;5447736;26;20437;-71
2024/04/10 07:33:34;;;;;;;22.25;5.43;;;13.00;34.10;;;;;;5449198;26;20361;-71
2024/04/10 07:36:13;;;;;;;25.70;5.63;;;13.10;33.00;;;;;;5451029;26;20329;-70
2024/04/10 07:38:40;;;;;;;13.13;4.60;;;13.20;32.80;;;;;;5452472;26;20330;-71
2024/04/10 07:41:06;;;;;;;17.27;6.00;;;13.20;32.70;;;;;;5451652;26;20476;-71
2024/04/10 07:43:36;;;;;;;21.08;4.60;;;13.10;33.10;;;;;;5449917;26;20320;-70
2024/04/10 07:46:11;;;;;;;23.55;5.80;;;12.70;33.50;;;;;;5449654;26;20333;-70
2024/04/10 07:48:39;;;;;;;15.68;5.32;;;12.70;34.40;;;;;;5447897;26;20329;-71
2024/04/10 07:51:06;;;;;;;17.42;5.28;;;12.80;34.40;;;;;;5448945;26;20407;-71
2024/04/10 07:53:33;;;;;;;21.40;5.65;;;12.70;34.50;;;;;;5449745;26;20369;-71
2024/04/10 07:55:59;;;;;;;15.23;4.20;;;12.70;34.50;;;;;;5449087;26;21203;-72
2024/04/10 07:58:25;;;;;;;28.57;4.60;;;12.70;34.90;;;;;;5449449;26;20452;-72
2024/04/10 08:00:56;;;;;;;23.98;6.60;;;13.00;34.40;;;;;;5447742;26;21218;-71
2024/04/10 08:03:22;;;;;;;19.15;4.90;;;12.90;34.80;;;;;;5449605;26;20419;-71
2024/04/10 08:05:58;;;;;;;23.55;4.75;;;12.90;33.50;;;;;;5448288;26;20317;-71
2024/04/10 08:08:24;;;;;;;17.25;4.38;;;12.90;33.60;;;;;;5449398;26;20702;-71
2024/04/10 08:11:03;;;;;;;16.60;3.87;;;13.00;33.10;;;;;;5449647;26;20349;-70
2024/04/10 08:13:30;;;;;;;14.67;3.60;;;12.80;32.60;;;;;;5448113;26;20328;-70
2024/04/10 08:15:58;;;;;;;15.88;4.72;;;12.80;32.80;;;;;;5448864;26;20321;-71
2024/04/10 08:18:28;;;;;;;17.58;3.72;;;12.80;33.10;;;;;;5449251;26;20348;-72
2024/04/10 08:21:13;;;;;;;14.40;3.97;;;12.70;32.80;;;;;;5448344;26;20337;-72
2024/04/10 08:23:40;;;;;;;17.50;4.05;;;12.40;33.40;;;;;;5446780;26;20401;-70
2024/04/10 08:26:24;;;;;;;17.00;3.80;;;12.30;34.50;;;;;;5448558;26;20471;-71
2024/04/10 08:28:50;;;;;;;21.80;4.70;;;12.20;34.60;;;;;;5446448;26;20324;-74
2024/04/10 08:31:22;;;;;;;14.85;4.00;;;12.00;36.20;;;;;;5447004;26;20329;-71
2024/04/10 08:33:47;;;;;;;20.85;5.18;;;12.10;35.40;;;;;;5448636;26;20329;-71
2024/04/10 08:36:14;;;;;;;15.00;4.32;;;12.20;35.80;;;;;;5448827;26;20404;-71
2024/04/10 08:38:40;;;;;;;20.70;4.53;;;12.20;35.20;;;;;;5448742;26;20472;-72
2024/04/10 08:41:12;;;;;;;25.53;5.00;;;12.10;34.90;;;;;;5448704;26;20520;-73
2024/04/10 08:43:40;;;;;;;21.17;5.28;;;;;;;;;;5448452;26;20341;-71
2024/04/10 08:46:08;;;;;;;15.20;3.90;;;12.50;33.80;;;;;;5446748;26;20350;-71
2024/04/10 08:48:35;;;;;;;13.25;3.80;;;12.80;33.40;;;;;;5448230;26;20419;-70
2024/04/10 08:51:02;;;;;;;17.00;4.30;;;13.00;33.00;;;;;;5447811;26;20343;-71
2024/04/10 08:53:30;;;;;;;14.88;4.10;;;13.30;30.50;;;;;;5446807;26;20325;-72
2024/04/10 08:55:55;;;;;;;14.98;4.50;;;13.30;31.10;;;;;;5447615;26;20351;-70
2024/04/10 08:58:22;;;;;;;17.97;4.60;;;13.10;31.00;;;;;;5448177;26;20810;-71
2024/04/10 09:00:47;;;;;;;15.70;4.70;;;13.00;31.60;;;;;;5446303;26;20344;-70
2024/04/10 09:03:13;;;;;;;19.35;4.82;;;13.20;31.80;;;;;;5446528;26;20788;-71
2024/04/10 09:05:39;;;;;;;22.13;5.45;;;13.40;32.00;;;;;;5448228;26;20831;-70
2024/04/10 09:08:06;;;;;;;17.17;4.40;;;13.50;31.80;;;;;;5448618;26;20871;-71
2024/04/10 09:10:32;;;;;;;17.58;4.55;;;14.00;28.80;;;;;;5448036;26;20333;-72
2024/04/10 09:13:08;;;;;;;19.75;4.97;;;14.40;28.00;;;;;;5447524;26;20811;-70
2024/04/10 09:15:34;;;;;;;17.10;5.10;;;14.70;27.60;;;;;;5447983;26;20345;-71
2024/04/10 09:18:00;;;;;;;19.67;6.05;;;14.70;25.90;;;;;;5449414;26;20701;-71
2024/04/10 09:20:25;;;;;;;14.13;4.22;;;14.50;24.90;;;;;;5452129;26;20683;-71
2024/04/10 09:22:59;;;;;;;18.67;3.70;;;14.10;24.60;;;;;;5449573;26;20325;-71
2024/04/10 09:25:25;;;;;;;12.70;3.50;;;13.70;25.40;;;;;;5451761;26;20419;-70
2024/04/10 09:28:05;;;;;;;11.50;3.70;;;13.40;26.00;;;;;;5452026;26;20834;-71
2024/04/10 09:30:35;;;;;;;7.85;2.83;;;13.20;27.10;;;;;;5451591;26;20753;-72
2024/04/10 09:33:02;;;;;;;17.20;3.63;;;13.20;26.30;;;;;;5451108;26;20329;-72
2024/04/10 09:35:28;;;;;;;11.55;2.88;;;13.90;25.30;;;;;;5451318;26;20357;-72
2024/04/10 09:38:02;;;;;;;12.50;3.30;;;14.00;24.30;;;;;;5451693;26;20663;-71
2024/04/10 09:40:29;;;;;;;16.27;3.97;;;14.60;23.80;;;;;;5451884;26;20324;-71
2024/04/10 09:43:04;;;;;;;16.43;3.63;;;14.60;24.30;;;;;;5449201;26;20337;-73
2024/04/10 09:45:34;;;;;;;14.13;3.58;;;14.50;24.50;;;;;;5449329;26;20776;-71
2024/04/10 09:48:05;;;;;;;8.18;3.00;;;14.30;24.10;;;;;;5451585;26;20431;-72
2024/04/10 09:50:35;;;;;;;21.00;3.10;;;14.10;24.60;;;;;;5449681;26;20333;-72
2024/04/10 09:53:02;;;;;;;13.10;2.80;;;13.90;24.60;;;;;;5451549;26;20913;-71
2024/04/10 09:55:32;;;;;;;13.65;3.20;;;13.80;24.30;;;;;;5448971;26;20350;-71
2024/04/10 09:57:59;;;;;;;14.40;3.03;;;13.90;25.20;;;;;;5451089;26;20352;-72
2024/04/10 10:00:25;;;;;;;10.90;3.10;;;13.80;25.50;;;;;;5451390;26;20384;-69
2024/04/10 10:03:05;;;;;;;9.40;2.43;;;13.60;25.90;;;;;;5450432;26;20377;-70
2024/04/10 10:05:30;;;;;;;10.98;2.80;;;13.50;25.50;;;;;;5451076;26;20325;-71
2024/04/10 10:08:17;;;;;;;7.13;2.33;;;13.60;25.40;;;;;;5451168;26;20916;-71
2024/04/10 10:10:52;;;;;;;10.70;2.70;;;13.90;23.70;;;;;;5451030;26;20329;-71
2024/04/10 10:13:32;;;;;;;11.85;2.33;;;14.30;22.70;;;;;;5451017;26;20485;-72
2024/04/10 10:16:03;;;;;;;11.50;2.30;;;14.30;22.90;;;;;;5451446;26;20366;-71
2024/04/10 10:18:29;;;;;;;12.03;2.50;;;14.60;22.30;;;;;;5451450;26;20672;-71
2024/04/10 10:21:08;;;;;;;8.02;2.70;;;14.80;20.90;;;;;;5451235;26;20321;-69
2024/04/10 10:23:35;;;;;;;14.40;2.50;;;14.90;19.80;;;;;;5451261;26;20360;-72
2024/04/10 10:26:01;;;;;;;9.32;2.67;;;14.80;20.20;;;;;;5450809;26;20673;-70
2024/04/10 10:28:29;;;;;;;9.93;2.47;;;15.70;20.10;;;;;;5449871;26;20325;-71
2024/04/10 10:31:14;;;;;;;13.48;3.08;;;15.20;20.00;;;;;;5450415;26;20350;-73
2024/04/10 10:33:41;;;;;;;19.08;3.45;;;15.30;20.00;;;;;;5450529;26;20337;-72
2024/04/10 10:36:07;;;;;;;10.20;3.45;;;15.30;20.70;;;;;;5450858;26;20867;-72
2024/04/10 10:38:33;;;;;;;14.20;3.30;;;15.10;21.40;;;;;;5451246;26;20388;-71
2024/04/10 10:41:11;;;;;;;10.23;2.97;;;14.80;22.30;;;;;;5450993;26;20329;-71
2024/04/10 10:46:13;;;;;;;8.38;2.83;;;14.40;21.60;;;;;;5485248;26;20381;-74
2024/04/10 10:48:38;;;;;;;9.85;3.10;;;14.50;22.20;;;;;;5486931;26;20347;-71
2024/04/10 10:51:05;;;;;;;12.60;3.00;;;14.80;21.70;;;;;;5487528;26;20349;-71
2024/04/10 10:53:31;;;;;;;12.93;3.10;;;15.00;20.90;;;;;;5487781;26;20404;-74
2024/04/10 10:55:57;;;;;;;10.57;2.60;;;15.20;18.90;;;;;;5488645;26;20401;-74
2024/04/10 10:58:24;;;;;;;9.02;2.95;;;15.10;20.30;;;;;;5487731;26;20326;-73
2024/04/10 11:00:50;;;;;;;10.20;3.00;;;15.30;19.70;;;;;;5488320;26;20397;-73
2024/04/10 11:03:16;;;;;;;11.13;2.60;;;15.30;19.60;;;;;;5487301;26;20358;-73
2024/04/10 11:05:42;;;;;;;6.57;2.40;;;15.40;18.40;;;;;;5487456;26;20330;-74
2024/04/10 11:08:08;;;;;;;9.83;2.53;;;15.50;18.60;;;;;;5487477;26;20322;-71
2024/04/10 11:10:34;;;;;;;8.80;2.70;;;15.50;17.80;;;;;;5486820;26;20937;-73
2024/04/10 11:13:07;;;;;;;11.82;2.65;;;15.70;18.50;;;;;;5486500;26;20322;-73
2024/04/10 11:15:42;;;;;;;10.27;3.07;;;15.80;17.40;;;;;;5487319;26;20426;-72
2024/04/10 11:18:09;;;;;;;10.20;2.97;;;15.60;18.10;;;;;;5486444;26;20412;-73
2024/04/10 11:20:35;;;;;;;15.80;3.58;;;16.10;18.10;;;;;;5486449;26;20885;-71
2024/04/10 11:23:07;;;;;;;14.10;3.72;;;14.80;19.70;;;;;;5486310;26;20334;-72
2024/04/10 11:25:33;;;;;;;7.70;2.90;;;13.40;19.50;;;;;;5486831;26;20777;-74
2024/04/10 11:28:00;;;;;;;11.68;3.40;;;14.90;20.30;;;;;;5486409;26;20485;-72
2024/04/10 11:30:26;;;;;;;10.93;3.50;;;14.90;20.60;;;;;;5487184;26;20497;-73
2024/04/10 11:32:53;;;;;;;13.50;3.43;;;15.00;20.40;;;;;;5486326;26;20326;-73
2024/04/10 11:35:19;;;;;;;9.45;2.85;;;15.20;19.20;;;;;;5486829;26;20345;-73
2024/04/10 11:37:45;;;;;;;15.70;3.10;;;15.50;19.00;;;;;;5486090;26;20331;-73
2024/04/10 11:40:13;;;;;;;14.25;2.55;;;15.30;17.90;;;;;;5485524;26;20334;-73
2024/04/10 11:42:40;;;;;;;8.60;2.63;;;15.10;18.30;;;;;;5487039;26;20345;-75
2024/04/10 11:45:09;;;;;;;8.25;2.88;;;15.00;18.60;;;;;;5486806;26;20334;-73
2024/04/10 11:47:38;;;;;;;12.13;3.10;;;15.00;18.90;;;;;;5486414;26;20415;-74
2024/04/10 11:50:05;;;;;;;13.00;3.03;;;14.80;19.70;;;;;;5486158;26;20688;-72
2024/04/10 11:52:31;;;;;;;9.98;2.70;;;14.60;18.60;;;;;;5454155;26;20330;-73
2024/04/10 11:54:58;;;;;;;10.80;2.60;;;14.50;19.20;;;;;;5486950;26;20326;-73
2024/04/10 11:57:24;;;;;;;12.45;3.08;;;14.40;18.80;;;;;;5486877;26;20326;-72
2024/04/10 11:59:49;;;;;;;10.27;3.15;;;14.40;18.60;;;;;;5486954;26;20916;-71
2024/04/10 12:02:15;;;;;;;8.43;2.33;;;14.50;17.60;;;;;;5486725;26;20681;-75
2024/04/10 12:04:41;;;;;;;11.03;2.63;;;14.40;18.50;;;;;;5486895;26;20619;-73
2024/04/10 12:07:07;;;;;;;11.68;3.17;;;14.50;18.60;;;;;;5487522;26;20330;-73
2024/04/10 12:09:33;;;;;;;9.60;2.50;;;14.60;17.70;;;;;;5486725;26;20406;-73
2024/04/10 12:11:58;;;;;;;12.20;3.00;;;14.50;18.10;;;;;;5485745;26;20796;-72
2024/04/10 12:14:24;;;;;;;13.63;2.00;;;14.50;17.40;;;;;;5485404;26;20333;-73
2024/04/10 12:16:50;;;;;;;14.05;3.10;;;14.80;17.20;;;;;;5485605;26;20334;-73
2024/04/10 12:19:15;;;;;;;8.25;2.65;;;15.30;16.80;;;;;;5487146;26;20330;-72
2024/04/10 12:21:42;;;;;;;9.27;2.30;;;15.70;15.50;;;;;;5486361;26;20508;-74
2024/04/10 12:24:08;;;;;;;7.87;2.80;;;16.40;13.80;;;;;;5486000;26;20847;-74
2024/04/10 12:26:34;;;;;;;11.15;2.58;;;17.40;14.60;;;;;;5485732;26;20395;-75
2024/04/10 12:29:00;;;;;;;6.70;2.50;;;16.30;15.00;;;;;;5454385;26;20374;-72
2024/04/10 12:31:26;;;;;;;6.45;2.20;;;16.60;14.00;;;;;;5484798;26;20366;-72
2024/04/10 12:33:52;;;;;;;10.13;2.90;;;16.80;12.40;;;;;;5484013;26;20450;-71
2024/04/10 12:39:04;;;;;;;10.13;3.95;;;17.10;12.00;;;;;;5485189;26;20424;-71
2024/04/10 12:41:29;;;;;;;14.55;3.20;;;17.30;13.10;;;;;;5485553;26;20358;-72
2024/04/10 12:43:56;;;;;;;12.63;3.23;;;17.40;12.90;;;;;;5484691;26;20680;-73
2024/04/10 12:46:27;;;;;;;9.88;3.13;;;17.50;12.80;;;;;;5485193;26;20867;-72
2024/04/10 12:48:53;;;;;;;9.73;3.00;;;17.60;13.00;;;;;;5485207;26;20319;-73
2024/04/10 12:51:18;;;;;;;13.10;3.30;;;17.70;13.00;;;;;;5485703;26;20812;-72